Time;durP1;ratioP1;P1;durP2;ratioP2;P2;SDS_P1;SDS_P2;PMS_P1;PMS_P2;Temp;Humidity;BMP_temperature;BMP_pressure;BME280_temperature;BME280_humidity;BME280_pressure;Samples;Min_cycle;Max_cycle;Signal;HPM_P1;HPM_P2
2024/02/29 00:01:01;;;;;;;6.12;4.78;;;;;;;11.49;61.08;100274.44;4476946;31;33494;-82
2024/02/29 00:03:29;;;;;;;3.53;3.05;;;;;;;11.40;61.07;100280.97;4479257;31;33866;-82
2024/02/29 00:05:57;;;;;;;2.17;1.35;;;;;;;11.22;61.94;100281.69;4491953;31;33365;-82
2024/02/29 00:08:26;;;;;;;2.40;2.30;;;;;;;11.26;61.41;100283.28;4477261;31;34679;-82
2024/02/29 00:10:54;;;;;;;1.98;1.37;;;;;;;11.15;61.78;100286.31;4489509;31;34380;-82
2024/02/29 00:13:22;;;;;;;3.37;3.08;;;;;;;11.10;62.06;100284.78;4490245;31;32219;-82
2024/02/29 00:15:50;;;;;;;1.90;1.65;;;;;;;11.10;62.08;100282.13;4476639;31;33144;-82
2024/02/29 00:18:18;;;;;;;2.08;1.92;;;;;;;11.12;62.02;100280.31;4480206;31;32975;-79
2024/02/29 00:20:46;;;;;;;2.85;2.65;;;;;;;11.12;62.20;100275.88;4479200;31;33587;-78
2024/02/29 00:23:14;;;;;;;3.35;2.15;;;;;;;11.29;60.69;100277.84;4466427;31;33407;-78
2024/02/29 00:25:42;;;;;;;1.37;1.02;;;;;;;11.10;61.41;100271.56;4491696;31;31600;-78
2024/02/29 00:28:09;;;;;;;2.00;1.48;;;;;;;11.01;61.65;100278.94;4490392;31;33191;-78
2024/02/29 00:30:37;;;;;;;2.22;2.05;;;;;;;10.96;61.79;100272.94;4463110;31;33379;-79
2024/02/29 00:33:05;;;;;;;1.62;1.52;;;;;;;10.91;61.90;100280.19;4476978;31;32924;-79
2024/02/29 00:35:32;;;;;;;2.83;2.62;;;;;;;10.96;61.72;100278.22;4488268;31;32989;-79
2024/02/29 00:38:00;;;;;;;2.72;2.53;;;;;;;11.04;61.19;100277.94;4464399;31;33179;-79
2024/02/29 00:40:29;;;;;;;3.10;2.80;;;;;;;10.83;62.27;100271.69;4478128;31;33597;-79
2024/02/29 00:42:57;;;;;;;2.08;1.98;;;;;;;10.80;61.91;100269.16;4492371;31;33754;-79
2024/02/29 00:45:24;;;;;;;1.65;0.88;;;;;;;10.81;61.56;100272.66;4476056;31;33293;-80
2024/02/29 00:47:54;;;;;;;2.03;1.85;;;;;;;10.80;61.87;100273.59;4489098;31;33717;-80
2024/02/29 00:50:22;;;;;;;2.53;2.05;;;;;;;10.64;62.30;100283.84;4477118;31;32641;-81
2024/02/29 00:52:50;;;;;;;2.37;2.10;;;;;;;10.76;61.92;100278.13;4463813;31;34074;-81
2024/02/29 00:55:18;;;;;;;4.93;3.28;;;;;;;10.61;62.89;100286.59;4479738;31;33603;-81
2024/02/29 00:57:49;;;;;;;4.22;2.92;;;;;;;10.70;62.41;100281.00;4477795;31;33783;-80
2024/02/29 01:00:18;;;;;;;1.57;1.00;;;;;;;10.72;62.37;100287.06;4477847;31;33003;-80
2024/02/29 01:02:45;;;;;;;2.33;2.22;;;;;;;10.69;62.56;100284.56;4467381;31;33589;-80
2024/02/29 01:05:14;;;;;;;1.80;1.37;;;;;;;10.64;63.05;100286.50;4477204;31;33189;-80
2024/02/29 01:07:42;;;;;;;2.15;2.05;;;;;;;10.73;62.57;100281.75;4480137;31;32531;-81
2024/02/29 01:10:13;;;;;;;1.77;1.67;;;;;;;10.76;62.86;100272.84;4490307;31;33407;-81
2024/02/29 01:12:44;;;;;;;2.35;1.98;;;;;;;10.79;62.58;100270.09;4478438;31;32043;-81
2024/02/29 01:15:12;;;;;;;2.12;1.77;;;;;;;10.79;62.52;100267.44;4475658;31;34090;-81
2024/02/29 01:17:41;;;;;;;2.90;2.75;;;;;;;10.79;62.87;100263.94;4479150;31;33639;-81
2024/02/29 01:20:10;;;;;;;3.95;2.00;;;;;;;10.73;63.16;100263.25;4479068;31;32976;-80
2024/02/29 01:22:38;;;;;;;1.73;1.62;;;;;;;10.70;63.16;100259.84;4479710;31;34031;-80
2024/02/29 01:25:06;;;;;;;3.75;3.08;;;;;;;10.60;63.48;100261.13;4464874;32;32872;-81
2024/02/29 01:27:34;;;;;;;3.95;3.12;;;;;;;10.72;63.40;100255.38;4487695;31;34545;-81
2024/02/29 01:30:03;;;;;;;3.45;3.15;;;;;;;10.82;62.88;100263.81;4491370;31;32294;-80
2024/02/29 01:32:30;;;;;;;7.95;3.33;;;;;;;10.68;63.68;100254.66;4475793;31;34540;-81
2024/02/29 01:35:04;;;;;;;2.15;2.05;;;;;;;10.72;63.29;100255.38;4475477;31;33557;-80
2024/02/29 01:37:32;;;;;;;2.53;2.33;;;;;;;10.75;63.41;100260.56;4487942;31;34647;-80
2024/02/29 01:39:59;;;;;;;3.25;2.92;;;;;;;10.80;63.02;100263.03;4490116;31;33918;-80
2024/02/29 01:42:27;;;;;;;2.12;1.65;;;;;;;10.86;62.52;100257.50;4489980;31;33848;-80
2024/02/29 01:44:55;;;;;;;4.10;3.72;;;;;;;10.83;62.67;100258.50;4465101;31;32329;-80
2024/02/29 01:47:24;;;;;;;3.83;3.53;;;;;;;10.69;63.06;100256.38;4477104;31;33733;-80
2024/02/29 01:50:04;;;;;;;1.45;1.15;;;;;;;10.83;62.49;100250.56;4488707;31;34699;-80
2024/02/29 01:52:33;;;;;;;1.87;1.67;;;;;;;10.81;62.81;100255.03;4476265;31;32832;-80
2024/02/29 01:55:02;;;;;;;2.60;2.40;;;;;;;10.90;62.20;100252.03;4475279;31;35785;-80
2024/02/29 01:57:31;;;;;;;2.97;2.55;;;;;;;10.76;62.88;100251.69;4477135;31;33564;-80
2024/02/29 02:00:02;;;;;;;4.32;3.97;;;;;;;10.74;62.72;100248.25;4475289;31;34161;-80
2024/02/29 02:02:30;;;;;;;4.93;2.15;;;;;;;10.78;62.58;100234.03;4475416;31;33184;-80
2024/02/29 02:04:58;;;;;;;3.62;3.33;;;;;;;10.72;62.51;100239.53;4475267;31;33044;-80
2024/02/29 02:07:26;;;;;;;2.67;2.28;;;;;;;10.62;62.83;100239.00;4478824;31;34000;-81
2024/02/29 02:09:55;;;;;;;3.78;2.85;;;;;;;10.61;62.80;100228.50;4474479;31;32906;-80
2024/02/29 02:12:23;;;;;;;2.22;1.05;;;;;;;10.61;63.10;100239.06;4491233;31;33965;-80
2024/02/29 02:14:51;;;;;;;2.78;1.92;;;;;;;10.59;63.14;100233.84;4474284;31;33789;-80
2024/02/29 02:17:19;;;;;;;2.85;2.65;;;;;;;10.61;63.18;100239.94;4489187;31;34533;-80
2024/02/29 02:19:47;;;;;;;4.47;2.72;;;;;;;10.69;62.74;100234.38;4474965;31;32232;-80
2024/02/29 02:22:15;;;;;;;6.57;3.92;;;;;;;10.59;63.09;100239.12;4475400;31;32153;-80
2024/02/29 02:24:43;;;;;;;2.45;2.25;;;;;;;10.64;62.99;100241.59;4474440;31;32490;-80
2024/02/29 02:27:10;;;;;;;2.62;2.10;;;;;;;10.69;62.47;100244.94;4478500;31;34656;-80
2024/02/29 02:29:38;;;;;;;4.65;3.92;;;;;;;10.50;63.20;100240.31;4490885;31;33914;-80
2024/02/29 02:32:06;;;;;;;2.03;1.83;;;;;;;10.50;63.18;100231.53;4478107;31;32708;-80
2024/02/29 02:34:34;;;;;;;1.48;1.42;;;;;;;10.49;63.43;100235.97;4479742;31;32802;-80
2024/02/29 02:37:02;;;;;;;2.72;2.08;;;;;;;10.58;63.20;100228.59;4491077;31;33511;-80
2024/02/29 02:39:30;;;;;;;2.50;2.30;;;;;;;10.53;63.05;100228.78;4490884;31;33861;-80
2024/02/29 02:41:58;;;;;;;3.17;2.92;;;;;;;10.41;63.46;100224.81;4475744;31;32872;-80
2024/02/29 02:44:25;;;;;;;10.90;2.20;;;;;;;10.52;63.00;100227.91;4477608;31;33083;-79
2024/02/29 02:46:54;;;;;;;2.80;2.60;;;;;;;10.45;63.02;100218.50;4479664;31;33160;-80
2024/02/29 02:49:22;;;;;;;2.70;2.10;;;;;;;10.47;62.83;100221.94;4478104;31;33437;-79
2024/02/29 02:51:49;;;;;;;4.28;2.67;;;;;;;10.49;62.90;100221.88;4481908;31;34223;-79
2024/02/29 02:54:17;;;;;;;1.77;1.45;;;;;;;10.31;63.59;100218.16;4474813;31;33413;-80
2024/02/29 02:56:45;;;;;;;4.37;2.45;;;;;;;10.33;63.38;100228.66;4477798;31;34284;-79
2024/02/29 02:59:13;;;;;;;6.82;2.67;;;;;;;10.43;62.76;100237.94;4479606;31;34031;-79
2024/02/29 03:01:40;;;;;;;4.28;2.20;;;;;;;10.32;63.20;100248.91;4479760;31;34143;-80
2024/02/29 03:04:08;;;;;;;3.42;3.12;;;;;;;10.39;63.02;100241.63;4492752;31;33996;-80
2024/02/29 03:06:36;;;;;;;3.47;3.17;;;;;;;10.41;62.97;100239.81;4490013;31;33816;-80
2024/02/29 03:09:04;;;;;;;16.58;4.85;;;;;;;10.33;62.96;100240.06;4480075;31;33736;-80
2024/02/29 03:11:33;;;;;;;1.50;1.20;;;;;;;10.33;63.18;100242.69;4479498;31;33150;-80
2024/02/29 03:14:01;;;;;;;3.75;3.37;;;;;;;10.31;63.18;100247.19;4489028;31;33134;-80
2024/02/29 03:16:28;;;;;;;2.55;2.30;;;;;;;10.36;62.96;100241.75;4477600;31;33474;-80
2024/02/29 03:18:56;;;;;;;6.03;4.05;;;;;;;10.22;63.15;100244.84;4463840;31;34451;-80
2024/02/29 03:21:24;;;;;;;4.28;2.60;;;;;;;10.15;63.39;100244.16;4479467;31;32640;-80
2024/02/29 03:23:52;;;;;;;2.58;2.42;;;;;;;10.25;62.66;100257.94;4492676;31;33434;-80
2024/02/29 03:26:20;;;;;;;3.03;2.72;;;;;;;10.20;62.53;100250.16;4468123;31;32928;-79
2024/02/29 03:28:47;;;;;;;2.03;1.92;;;;;;;10.20;62.89;100246.66;4494043;31;34795;-80
2024/02/29 03:31:15;;;;;;;3.22;1.73;;;;;;;10.15;62.83;100248.59;4477693;31;34421;-80
2024/02/29 03:33:43;;;;;;;2.65;2.30;;;;;;;10.13;62.88;100250.44;4479921;31;33829;-80
2024/02/29 03:36:13;;;;;;;2.12;1.73;;;;;;;10.11;62.96;100257.53;4480024;31;33074;-79
2024/02/29 03:38:42;;;;;;;9.85;2.83;;;;;;;10.14;62.76;100262.69;4493744;31;34776;-80
2024/02/29 03:41:10;;;;;;;4.57;2.92;;;;;;;10.15;62.79;100259.16;4491031;31;33553;-79
2024/02/29 03:43:37;;;;;;;2.67;2.03;;;;;;;10.25;61.00;100250.91;4474729;31;33362;-80
2024/02/29 03:46:05;;;;;;;3.05;2.85;;;;;;;10.00;62.78;100263.19;4490879;31;32954;-80
2024/02/29 03:48:33;;;;;;;2.53;2.33;;;;;;;10.00;62.45;100269.31;4479522;31;33725;-79
2024/02/29 03:51:01;;;;;;;2.45;2.35;;;;;;;9.94;62.98;100268.66;4479355;31;34070;-79
2024/02/29 03:53:29;;;;;;;3.40;2.37;;;;;;;9.98;62.64;100252.69;4492157;31;33604;-79
2024/02/29 03:55:57;;;;;;;4.05;1.92;;;;;;;9.89;63.01;100255.62;4490705;31;33741;-79
2024/02/29 03:58:24;;;;;;;7.20;3.85;;;;;;;9.85;63.10;100246.09;4488992;31;33626;-78
2024/02/29 04:00:52;;;;;;;5.75;2.90;;;;;;;9.80;63.25;100250.66;4478533;31;33892;-79
2024/02/29 04:03:20;;;;;;;2.30;2.12;;;;;;;9.81;62.95;100249.75;4489800;31;33734;-79
2024/02/29 04:05:47;;;;;;;0.82;0.82;;;;;;;9.65;63.51;100253.81;4479131;31;33280;-80
2024/02/29 04:08:15;;;;;;;1.75;1.65;;;;;;;9.81;62.87;100256.78;4483890;31;33598;-80
2024/02/29 04:10:46;;;;;;;8.05;4.43;;;;;;;9.72;62.84;100250.03;4477378;31;31950;-80
2024/02/29 04:13:14;;;;;;;2.12;2.03;;;;;;;9.77;62.76;100240.19;4478464;31;33392;-81
2024/02/29 04:15:41;;;;;;;1.12;1.12;;;;;;;9.78;62.43;100239.31;4478219;31;33161;-81
2024/02/29 04:18:13;;;;;;;2.15;1.17;;;;;;;9.84;62.58;100238.25;4489097;31;33222;-81
2024/02/29 04:20:40;;;;;;;1.10;1.02;;;;;;;9.75;62.83;100239.41;4477419;31;32514;-80
2024/02/29 04:23:08;;;;;;;5.22;3.15;;;;;;;9.71;62.91;100241.28;4475553;31;32700;-80
2024/02/29 04:25:36;;;;;;;1.23;1.17;;;;;;;9.75;62.82;100242.03;4478509;31;33810;-80
2024/02/29 04:28:04;;;;;;;2.85;1.92;;;;;;;9.66;62.80;100237.06;4490397;31;32666;-79
2024/02/29 04:30:31;;;;;;;2.20;2.10;;;;;;;9.78;62.77;100243.69;4491600;31;33187;-79
2024/02/29 04:33:00;;;;;;;3.00;2.10;;;;;;;9.70;62.76;100238.69;4477663;31;33815;-80
2024/02/29 04:35:28;;;;;;;2.90;2.58;;;;;;;9.71;62.51;100240.41;4480929;31;32902;-80
2024/02/29 04:37:55;;;;;;;3.12;2.80;;;;;;;9.58;63.01;100241.72;4479120;31;34336;-80
2024/02/29 04:40:26;;;;;;;4.55;3.70;;;;;;;9.66;63.00;100244.97;4479243;31;33824;-80
2024/02/29 04:42:54;;;;;;;14.05;3.80;;;;;;;9.60;63.30;100237.28;4493539;31;33290;-80
2024/02/29 04:45:25;;;;;;;1.90;1.55;;;;;;;9.59;63.17;100236.41;4478708;31;33067;-80
2024/02/29 04:47:54;;;;;;;2.85;2.65;;;;;;;9.58;63.30;100247.00;4477519;31;32927;-80
2024/02/29 04:50:21;;;;;;;7.22;1.77;;;;;;;9.59;63.17;100241.69;4490347;31;33760;-80
2024/02/29 04:52:49;;;;;;;1.35;1.10;;;;;;;9.64;62.91;100239.78;4481754;31;34048;-80
2024/02/29 04:55:19;;;;;;;9.07;3.00;;;;;;;9.55;63.42;100242.69;4478088;31;34307;-80
2024/02/29 04:57:47;;;;;;;6.40;3.53;;;;;;;9.57;62.91;100242.62;4478637;31;33716;-80
2024/02/29 05:00:15;;;;;;;3.50;2.17;;;;;;;9.60;63.06;100239.91;4492876;31;33616;-80
2024/02/29 05:02:43;;;;;;;2.75;2.45;;;;;;;9.64;62.95;100239.78;4489388;31;33363;-79
2024/02/29 05:05:12;;;;;;;2.33;2.12;;;;;;;9.52;63.13;100236.66;4477982;31;34197;-79
2024/02/29 05:07:41;;;;;;;1.80;1.70;;;;;;;9.56;62.85;100243.56;4489771;31;32583;-79
2024/02/29 05:10:10;;;;;;;1.37;1.35;;;;;;;9.54;63.01;100237.47;4478141;31;32440;-79
2024/02/29 05:12:37;;;;;;;2.85;1.05;;;;;;;9.58;62.56;100244.34;4490216;31;34130;-79
2024/02/29 05:15:06;;;;;;;2.80;2.35;;;;;;;9.52;62.37;100231.38;4477569;31;34499;-79
2024/02/29 05:17:34;;;;;;;2.83;1.62;;;;;;;9.57;62.45;100229.47;4492196;31;33916;-79
2024/02/29 05:20:03;;;;;;;1.67;1.58;;;;;;;9.36;63.27;100231.88;4479522;31;34505;-79
2024/02/29 05:22:31;;;;;;;1.87;1.77;;;;;;;9.39;63.11;100229.12;4477201;31;32283;-79
2024/02/29 05:25:00;;;;;;;2.25;2.15;;;;;;;9.41;62.75;100229.97;4478158;31;33990;-79
2024/02/29 05:27:29;;;;;;;11.00;2.67;;;;;;;9.39;62.72;100226.50;4478804;31;34885;-81
2024/02/29 05:29:57;;;;;;;2.17;2.05;;;;;;;9.28;63.00;100228.62;4478317;31;33127;-79
2024/02/29 05:32:25;;;;;;;3.87;3.58;;;;;;;9.34;63.08;100217.03;4475127;31;32555;-79
2024/02/29 05:34:53;;;;;;;2.92;2.53;;;;;;;9.40;62.76;100230.87;4464300;31;32468;-79
2024/02/29 05:37:20;;;;;;;4.07;1.85;;;;;;;9.21;63.07;100238.50;4489949;31;33927;-80
2024/02/29 05:39:48;;;;;;;3.67;2.85;;;;;;;9.38;62.22;100232.69;4490275;31;33703;-79
2024/02/29 05:42:16;;;;;;;3.42;2.00;;;;;;;9.31;62.43;100238.22;4489974;31;32735;-79
2024/02/29 05:44:43;;;;;;;4.18;3.33;;;;;;;9.15;63.32;100237.81;4489856;31;34296;-79
2024/02/29 05:47:12;;;;;;;2.42;2.28;;;;;;;9.16;63.04;100245.69;4475794;31;34011;-79
2024/02/29 05:49:39;;;;;;;6.53;3.75;;;;;;;9.20;62.96;100243.81;4464246;32;33284;-79
2024/02/29 05:52:07;;;;;;;2.53;1.92;;;;;;;9.19;63.04;100245.56;4450598;32;32720;-79
2024/02/29 05:54:35;;;;;;;0.93;0.90;;;;;;;9.23;63.17;100249.00;4454974;32;34477;-79
2024/02/29 05:57:03;;;;;;;0.85;0.85;;;;;;;9.14;63.59;100231.69;4455987;32;34044;-79
2024/02/29 05:59:32;;;;;;;11.25;4.68;;;;;;;9.07;63.92;100240.69;4470294;32;33563;-80
2024/02/29 06:02:00;;;;;;;2.30;2.12;;;;;;;9.13;63.46;100247.53;4458475;32;33332;-80
2024/02/29 06:04:28;;;;;;;1.87;1.77;;;;;;;9.32;62.67;100243.44;4473472;32;33543;-80
2024/02/29 06:06:56;;;;;;;2.03;1.87;;;;;;;9.30;62.96;100250.50;4466012;32;32264;-80
2024/02/29 06:09:23;;;;;;;1.92;1.83;;;;;;;9.21;63.50;100256.09;4441976;32;32120;-80
2024/02/29 06:11:51;;;;;;;2.17;2.08;;;;;;;9.34;63.32;100252.12;4439936;32;31706;-81
2024/02/29 06:14:19;;;;;;;2.83;2.12;;;;;;;9.33;63.21;100263.59;4460295;32;34114;-80
2024/02/29 06:16:47;;;;;;;3.30;1.00;;;;;;;9.40;63.00;100258.97;4476731;32;35161;-81
2024/02/29 06:19:15;;;;;;;2.17;2.08;;;;;;;9.39;62.85;100254.63;4441894;32;33701;-80
2024/02/29 06:21:43;;;;;;;3.10;2.90;;;;;;;9.28;63.63;100257.59;4470179;32;33985;-81
2024/02/29 06:24:11;;;;;;;2.67;2.37;;;;;;;9.52;62.61;100255.13;4454721;32;33576;-80
2024/02/29 06:26:39;;;;;;;1.25;1.15;;;;;;;9.42;63.66;100252.78;4456786;32;33459;-81
2024/02/29 06:29:06;;;;;;;5.07;2.30;;;;;;;9.75;62.45;100245.53;4472686;32;33460;-81
2024/02/29 06:31:34;;;;;;;3.60;2.00;;;;;;;9.55;63.87;100240.06;4444200;31;32464;-80
2024/02/29 06:34:03;;;;;;;3.33;3.10;;;;;;;9.58;63.89;100252.28;4480942;32;32483;-80
2024/02/29 06:36:36;;;;;;;2.45;2.25;;;;;;;9.62;63.84;100252.12;4443010;32;34124;-80
2024/02/29 06:39:07;;;;;;;3.83;3.05;;;;;;;9.71;63.90;100258.88;4484237;32;33561;-80
2024/02/29 06:41:36;;;;;;;1.15;1.05;;;;;;;9.69;64.40;100258.06;4458012;32;32909;-80
2024/02/29 06:44:06;;;;;;;1.50;1.45;;;;;;;9.73;64.63;100257.94;4466511;32;33152;-81
2024/02/29 06:46:33;;;;;;;1.85;1.75;;;;;;;9.86;64.43;100250.44;4455931;32;33132;-80
2024/02/29 06:49:02;;;;;;;2.83;1.83;;;;;;;9.93;64.62;100246.72;4475062;31;34801;-81
2024/02/29 06:51:30;;;;;;;5.62;3.62;;;;;;;10.12;64.21;100246.94;4479945;31;34018;-80
2024/02/29 06:53:57;;;;;;;2.85;2.33;;;;;;;10.50;63.18;100253.53;4481740;31;34110;-80
2024/02/29 06:56:25;;;;;;;8.07;3.17;;;;;;;10.38;63.84;100251.31;4492643;31;34006;-80
2024/02/29 06:58:53;;;;;;;1.27;1.10;;;;;;;10.00;65.07;100258.75;4482350;31;34575;-81
2024/02/29 07:01:21;;;;;;;3.37;2.45;;;;;;;10.16;65.46;100250.31;4480208;31;33064;-80
2024/02/29 07:03:48;;;;;;;6.18;1.62;;;;;;;10.51;64.06;100251.75;4483713;31;33562;-79
2024/02/29 07:06:16;;;;;;;5.15;2.42;;;;;;;10.57;64.41;100246.22;4485249;31;33595;-80
2024/02/29 07:08:45;;;;;;;4.82;3.85;;;;;;;10.75;64.47;100240.28;4494995;31;33704;-79
2024/02/29 07:11:13;;;;;;;2.80;2.58;;;;;;;11.00;63.81;100241.97;4468769;31;32410;-79
2024/02/29 07:13:42;;;;;;;2.58;2.35;;;;;;;10.98;64.27;100242.06;4475988;31;35363;-80
2024/02/29 07:16:09;;;;;;;3.05;2.65;;;;;;;10.71;65.16;100248.38;4465408;31;32722;-79
2024/02/29 07:18:37;;;;;;;2.50;2.40;;;;;;;10.73;65.21;100246.56;4464850;31;32369;-80
2024/02/29 07:21:06;;;;;;;3.53;3.00;;;;;;;10.72;65.18;100244.81;4492050;31;33472;-79
2024/02/29 07:23:35;;;;;;;1.30;1.20;;;;;;;10.86;65.12;100247.78;4491710;31;34228;-80
2024/02/29 07:26:04;;;;;;;1.98;1.85;;;;;;;10.94;65.24;100237.81;4494186;31;33618;-79
2024/02/29 07:28:32;;;;;;;6.00;5.37;;;;;;;10.94;65.47;100248.38;4477489;31;33829;-79
2024/02/29 07:31:01;;;;;;;2.25;2.15;;;;;;;11.01;65.45;100241.06;4477203;31;32787;-80
2024/02/29 07:33:30;;;;;;;2.28;2.17;;;;;;;11.17;65.25;100236.91;4477478;31;32281;-79
2024/02/29 07:35:58;;;;;;;2.75;2.03;;;;;;;11.22;64.92;100228.81;4489065;31;33951;-79
2024/02/29 07:38:26;;;;;;;4.35;3.22;;;;;;;11.25;64.82;100228.66;4477767;31;35417;-80
2024/02/29 07:40:54;;;;;;;9.05;5.25;;;;;;;11.14;65.48;100231.75;4477646;31;33359;-80
2024/02/29 07:43:22;;;;;;;2.58;1.55;;;;;;;11.38;64.99;100231.69;4479093;31;33706;-80
2024/02/29 07:45:50;;;;;;;4.30;3.47;;;;;;;11.41;65.37;100227.16;4493671;31;33620;-81
2024/02/29 07:48:18;;;;;;;4.40;2.75;;;;;;;11.53;65.21;100225.78;4478622;31;33281;-80
2024/02/29 07:50:46;;;;;;;6.10;3.15;;;;;;;11.65;64.83;100225.28;4477494;31;33261;-80
2024/02/29 07:53:14;;;;;;;3.47;2.95;;;;;;;11.76;64.76;100224.84;4465859;31;32542;-80
2024/02/29 07:55:41;;;;;;;2.50;2.12;;;;;;;11.79;65.00;100208.84;4491725;31;33410;-80
2024/02/29 07:58:09;;;;;;;1.73;1.62;;;;;;;11.89;64.55;100212.84;4478418;31;33613;-80
2024/02/29 08:00:37;;;;;;;2.90;2.62;;;;;;;12.08;64.30;100212.06;4475493;31;34164;-79
2024/02/29 08:03:05;;;;;;;3.47;1.92;;;;;;;12.18;63.79;100213.37;4477558;31;33658;-80
2024/02/29 08:05:38;;;;;;;3.33;2.10;;;;;;;12.22;64.06;100210.53;4477032;31;33416;-82
2024/02/29 08:08:07;;;;;;;6.12;2.17;;;;;;;12.95;62.01;100208.97;4467746;31;30475;-79
2024/02/29 08:10:35;;;;;;;3.75;2.45;;;;;;;13.02;62.12;100210.41;4494379;31;33305;-80
2024/02/29 08:13:03;;;;;;;7.60;2.80;;;;;;;12.69;63.18;100206.69;4476215;31;34564;-80
2024/02/29 08:15:31;;;;;;;2.55;2.35;;;;;;;12.32;64.47;100203.03;4489689;31;32223;-80
2024/02/29 08:17:58;;;;;;;3.62;2.78;;;;;;;12.25;64.85;100201.59;4492474;31;33802;-80
2024/02/29 08:20:26;;;;;;;2.65;2.45;;;;;;;12.46;64.16;100205.94;4479129;31;32342;-80
2024/02/29 08:22:54;;;;;;;1.60;1.52;;;;;;;12.92;63.27;100203.84;4463615;31;34309;-80
2024/02/29 08:25:26;;;;;;;2.15;2.03;;;;;;;13.12;62.47;100199.38;4478382;31;34010;-80
2024/02/29 08:27:54;;;;;;;;;;;;;;;13.18;62.07;100207.03;4480185;31;32867;-81
2024/02/29 08:30:22;;;;;;;1.83;1.73;;;;;;;13.07;62.86;100205.75;4476974;31;31854;-80
2024/02/29 08:32:50;;;;;;;26.05;5.87;;;;;;;13.23;62.73;100207.69;4478757;31;34533;-80
2024/02/29 08:35:18;;;;;;;7.22;3.75;;;;;;;13.50;61.68;100203.72;4465121;31;33256;-80
2024/02/29 08:37:46;;;;;;;2.45;2.25;;;;;;;13.42;61.77;100205.00;4480904;31;33097;-80
2024/02/29 08:40:13;;;;;;;3.08;2.65;;;;;;;13.65;61.42;100203.88;4478346;31;33265;-81
2024/02/29 08:42:42;;;;;;;4.47;3.45;;;;;;;13.85;60.58;100198.41;4478057;31;33537;-81
2024/02/29 08:45:09;;;;;;;2.75;2.42;;;;;;;13.90;60.47;100199.03;4475074;31;32871;-81
2024/02/29 08:47:37;;;;;;;5.85;5.10;;;;;;;13.94;60.61;100189.97;4464732;31;32892;-81
2024/02/29 08:50:05;;;;;;;3.47;3.00;;;;;;;14.00;60.35;100194.13;4491372;31;33003;-81
2024/02/29 08:52:33;;;;;;;5.75;3.33;;;;;;;14.02;60.57;100194.91;4479798;31;33304;-81
2024/02/29 08:55:02;;;;;;;2.78;1.45;;;;;;;13.99;60.25;100193.25;4476484;31;31584;-81
2024/02/29 08:57:30;;;;;;;4.07;2.53;;;;;;;13.82;60.31;100195.94;4489913;31;32470;-82
2024/02/29 08:59:58;;;;;;;3.12;2.42;;;;;;;13.69;59.23;100189.53;4491409;31;33303;-81
2024/02/29 09:02:27;;;;;;;2.17;2.08;;;;;;;13.79;58.09;100188.97;4491601;31;33592;-82
2024/02/29 09:04:55;;;;;;;16.30;3.62;;;;;;;13.77;57.94;100192.66;4490197;31;33906;-82
2024/02/29 09:07:22;;;;;;;2.50;2.28;;;;;;;13.77;58.04;100188.22;4465620;31;32148;-82
2024/02/29 09:09:51;;;;;;;2.10;1.83;;;;;;;14.42;56.35;100190.16;4480051;31;31895;-81
2024/02/29 09:12:19;;;;;;;2.00;1.75;;;;;;;14.18;56.31;100184.34;4492393;31;34070;-82
2024/02/29 09:14:47;;;;;;;2.78;2.58;;;;;;;14.14;56.45;100190.75;4477852;31;33799;-82
2024/02/29 09:17:14;;;;;;;4.25;2.60;;;;;;;14.58;55.74;100191.97;4494695;31;33525;-81
2024/02/29 09:19:42;;;;;;;4.03;2.28;;;;;;;14.71;54.66;100192.13;4479066;31;32290;-81
2024/02/29 09:22:10;;;;;;;4.43;2.65;;;;;;;14.57;55.17;100184.03;4491793;31;33950;-82
2024/02/29 09:24:37;;;;;;;4.78;2.05;;;;;;;14.87;54.26;100186.00;4478847;31;33521;-81
2024/02/29 09:27:05;;;;;;;3.60;3.37;;;;;;;14.76;53.80;100183.91;4476944;31;32273;-82
2024/02/29 09:29:33;;;;;;;2.80;1.87;;;;;;;14.86;53.44;100169.19;4463028;31;32958;-81
2024/02/29 09:32:02;;;;;;;19.23;1.73;;;;;;;15.06;53.86;100168.91;4491195;31;33758;-82
2024/02/29 09:34:30;;;;;;;3.87;2.97;;;;;;;15.00;53.29;100171.94;4481264;31;32306;-81
2024/02/29 09:37:04;;;;;;;3.12;2.75;;;;;;;14.74;54.51;100177.81;4489005;31;32834;-81
2024/02/29 09:39:33;;;;;;;5.45;2.75;;;;;;;15.13;52.90;100171.22;4480118;31;33358;-82
2024/02/29 09:42:00;;;;;;;5.28;1.80;;;;;;;15.23;52.14;100175.94;4476877;31;34529;-81
2024/02/29 09:44:42;;;;;;;3.22;2.42;;;;;;;15.52;50.91;100162.75;4488717;31;34429;-83
2024/02/29 09:47:13;;;;;;;10.77;2.55;;;;;;;15.45;50.99;100172.91;4475927;31;34418;-83
2024/02/29 09:49:41;;;;;;;4.95;2.53;;;;;;;15.27;50.83;100166.84;4477128;31;33111;-80
2024/02/29 09:52:15;;;;;;;3.33;2.85;;;;;;;15.36;51.18;100162.78;4476302;31;33899;-80
2024/02/29 09:54:43;;;;;;;2.35;2.22;;;;;;;15.53;51.33;100160.03;4453093;31;34325;-80
2024/02/29 09:57:12;;;;;;;4.57;3.10;;;;;;;15.58;50.93;100168.59;4476673;31;33481;-80
2024/02/29 09:59:43;;;;;;;12.02;2.67;;;;;;;15.69;50.13;100164.47;4463901;31;32547;-81
2024/02/29 10:02:14;;;;;;;7.05;3.17;;;;;;;16.00;50.26;100164.38;4462725;31;32593;-80
2024/02/29 10:04:42;;;;;;;3.08;2.83;;;;;;;16.19;49.64;100164.09;4477592;31;32499;-81
2024/02/29 10:07:10;;;;;;;2.37;2.28;;;;;;;16.27;49.17;100166.28;4481522;31;33836;-81
2024/02/29 10:09:38;;;;;;;4.07;3.35;;;;;;;16.35;48.89;100164.88;4473532;31;33452;-81
2024/02/29 10:12:07;;;;;;;1.90;1.80;;;;;;;16.75;48.56;100156.19;4477447;31;33635;-80
2024/02/29 10:14:35;;;;;;;1.45;1.35;;;;;;;16.76;47.48;100163.25;4477118;31;33312;-80
2024/02/29 10:17:04;;;;;;;1.95;1.85;;;;;;;16.59;47.94;100167.81;4463996;31;33979;-81
2024/02/29 10:19:33;;;;;;;3.47;1.42;;;;;;;16.44;48.04;100166.09;4492013;31;34207;-81
2024/02/29 10:22:00;;;;;;;3.72;2.40;;;;;;;16.84;48.21;100171.63;4475837;31;32528;-80
2024/02/29 10:24:28;;;;;;;3.03;2.83;;;;;;;16.61;47.71;100157.88;4491115;31;34693;-81
2024/02/29 10:27:03;;;;;;;4.68;2.22;;;;;;;16.81;46.55;100153.16;4477153;31;34254;-80
2024/02/29 10:29:30;;;;;;;0.85;0.85;;;;;;;17.03;46.64;100150.81;4463175;31;32445;-80
2024/02/29 10:31:58;;;;;;;7.82;2.97;;;;;;;17.36;45.76;100147.75;4490381;31;32378;-80
2024/02/29 10:34:26;;;;;;;8.65;3.03;;;;;;;16.85;46.47;100142.22;4464805;31;33709;-81
2024/02/29 10:36:54;;;;;;;2.92;2.72;;;;;;;16.90;47.34;100144.53;4466074;31;31858;-81
2024/02/29 10:39:22;;;;;;;1.92;1.83;;;;;;;17.28;46.47;100135.84;4483425;31;33335;-81
2024/02/29 10:41:50;;;;;;;15.32;4.25;;;;;;;17.39;46.03;100133.34;4477528;31;33961;-81
2024/02/29 10:44:21;;;;;;;2.12;2.00;;;;;;;16.99;46.43;100132.44;4474263;31;33881;-81
2024/02/29 10:46:50;;;;;;;3.30;1.83;;;;;;;17.44;46.28;100119.69;4476832;31;32553;-81
2024/02/29 10:49:34;;;;;;;3.83;2.30;;;;;;;17.21;45.56;100126.56;4477422;31;33546;-80
2024/02/29 10:52:09;;;;;;;4.47;2.67;;;;;;;17.23;46.86;100127.31;4480019;31;34385;-81
2024/02/29 10:54:46;;;;;;;8.38;3.40;;;;;;;17.18;45.65;100121.41;4493602;31;32850;-81
2024/02/29 10:57:15;;;;;;;1.98;1.45;;;;;;;17.18;46.18;100127.59;4488417;31;33809;-81
2024/02/29 10:59:49;;;;;;;2.05;1.95;;;;;;;17.15;45.86;100126.00;4477183;31;34127;-81
2024/02/29 11:02:20;;;;;;;2.40;2.12;;;;;;;16.88;46.18;100111.78;4465818;31;32983;-81
2024/02/29 11:04:48;;;;;;;5.68;2.70;;;;;;;16.68;45.87;100106.88;4464774;31;34433;-81
2024/02/29 11:07:15;;;;;;;2.08;1.98;;;;;;;17.04;46.14;100109.84;4488553;31;34958;-81
2024/02/29 11:09:44;;;;;;;2.83;2.08;;;;;;;17.11;45.76;100111.16;4489976;31;32987;-81
2024/02/29 11:12:16;;;;;;;2.50;2.30;;;;;;;17.35;45.50;100100.66;4475026;31;34180;-81
2024/02/29 11:14:45;;;;;;;4.72;1.58;;;;;;;16.94;46.62;100115.88;4480165;31;34962;-81
2024/02/29 11:17:13;;;;;;;2.03;1.87;;;;;;;17.14;45.83;100094.94;4476063;31;33627;-81
2024/02/29 11:19:41;;;;;;;2.90;2.08;;;;;;;17.27;45.90;100091.44;4462611;31;32834;-80
2024/02/29 11:22:30;;;;;;;17.37;3.58;;;;;;;16.97;46.22;100105.00;4489679;31;33558;-81
2024/02/29 11:24:59;;;;;;;5.72;3.05;;;;;;;17.32;45.79;100092.00;4477396;31;34362;-80
2024/02/29 11:27:33;;;;;;;1.90;1.80;;;;;;;16.93;46.33;100100.84;4493955;31;33533;-81
2024/02/29 11:30:03;;;;;;;2.95;2.78;;;;;;;17.17;46.20;100087.69;4491209;31;33185;-81
2024/02/29 11:32:34;;;;;;;3.72;3.42;;;;;;;17.37;45.11;100085.38;4478780;31;33292;-80